sensor_id;sensor_type;location;lat;lon;timestamp;temperature;humidity
14604;DHT22;7388;51.078;13.740;2023-12-20T00:01:35;10.80;50.50
14604;DHT22;7388;51.078;13.740;2023-12-20T00:04:04;10.90;50.40
14604;DHT22;7388;51.078;13.740;2023-12-20T00:06:30;10.90;50.20
14604;DHT22;7388;51.078;13.740;2023-12-20T00:08:56;10.90;50.00
14604;DHT22;7388;51.078;13.740;2023-12-20T00:11:23;10.90;50.00
14604;DHT22;7388;51.078;13.740;2023-12-20T00:13:49;10.90;50.00
14604;DHT22;7388;51.078;13.740;2023-12-20T00:16:15;10.90;50.00
14604;DHT22;7388;51.078;13.740;2023-12-20T00:18:41;10.70;50.00
14604;DHT22;7388;51.078;13.740;2023-12-20T00:21:07;10.70;50.40
14604;DHT22;7388;51.078;13.740;2023-12-20T00:23:33;10.70;50.10
14604;DHT22;7388;51.078;13.740;2023-12-20T00:25:59;10.80;49.90
14604;DHT22;7388;51.078;13.740;2023-12-20T00:28:25;10.80;49.70
14604;DHT22;7388;51.078;13.740;2023-12-20T00:30:51;10.80;49.80
14604;DHT22;7388;51.078;13.740;2023-12-20T00:33:17;10.70;49.70
14604;DHT22;7388;51.078;13.740;2023-12-20T00:35:43;10.60;49.10
14604;DHT22;7388;51.078;13.740;2023-12-20T00:38:08;10.50;49.90
14604;DHT22;7388;51.078;13.740;2023-12-20T00:40:35;10.40;49.50
14604;DHT22;7388;51.078;13.740;2023-12-20T00:43:01;10.40;50.00
14604;DHT22;7388;51.078;13.740;2023-12-20T00:45:27;10.40;49.80
14604;DHT22;7388;51.078;13.740;2023-12-20T00:47:53;10.50;49.80
14604;DHT22;7388;51.078;13.740;2023-12-20T00:50:18;10.30;49.70
14604;DHT22;7388;51.078;13.740;2023-12-20T00:52:44;10.20;49.80
14604;DHT22;7388;51.078;13.740;2023-12-20T00:55:10;10.30;49.90
14604;DHT22;7388;51.078;13.740;2023-12-20T00:57:36;10.40;49.30
14604;DHT22;7388;51.078;13.740;2023-12-20T01:00:02;10.40;49.30
14604;DHT22;7388;51.078;13.740;2023-12-20T01:02:28;10.40;49.30
14604;DHT22;7388;51.078;13.740;2023-12-20T01:04:54;10.50;49.20
14604;DHT22;7388;51.078;13.740;2023-12-20T01:07:20;10.50;49.10
14604;DHT22;7388;51.078;13.740;2023-12-20T01:09:46;10.60;49.00
14604;DHT22;7388;51.078;13.740;2023-12-20T01:12:12;10.60;48.80
14604;DHT22;7388;51.078;13.740;2023-12-20T01:14:38;10.60;48.70
14604;DHT22;7388;51.078;13.740;2023-12-20T01:17:05;10.50;48.60
14604;DHT22;7388;51.078;13.740;2023-12-20T01:19:31;10.40;48.60
14604;DHT22;7388;51.078;13.740;2023-12-20T01:21:57;10.40;48.80
14604;DHT22;7388;51.078;13.740;2023-12-20T01:24:22;10.20;49.40
14604;DHT22;7388;51.078;13.740;2023-12-20T01:26:48;10.10;49.80
14604;DHT22;7388;51.078;13.740;2023-12-20T01:29:14;10.10;49.90
14604;DHT22;7388;51.078;13.740;2023-12-20T01:31:41;10.10;49.80
14604;DHT22;7388;51.078;13.740;2023-12-20T01:34:07;10.10;49.70
14604;DHT22;7388;51.078;13.740;2023-12-20T01:36:33;10.00;50.40
14604;DHT22;7388;51.078;13.740;2023-12-20T01:38:59;9.90;50.00
14604;DHT22;7388;51.078;13.740;2023-12-20T01:41:24;10.00;49.90
14604;DHT22;7388;51.078;13.740;2023-12-20T01:43:50;9.90;50.20
14604;DHT22;7388;51.078;13.740;2023-12-20T01:46:17;10.00;50.00
14604;DHT22;7388;51.078;13.740;2023-12-20T01:48:43;10.00;49.80
14604;DHT22;7388;51.078;13.740;2023-12-20T01:51:09;9.90;49.90
14604;DHT22;7388;51.078;13.740;2023-12-20T01:53:36;10.00;49.90
14604;DHT22;7388;51.078;13.740;2023-12-20T01:56:03;10.00;49.10
14604;DHT22;7388;51.078;13.740;2023-12-20T01:58:29;9.90;49.90
14604;DHT22;7388;51.078;13.740;2023-12-20T02:00:55;9.90;49.90
14604;DHT22;7388;51.078;13.740;2023-12-20T02:03:21;9.90;49.70
14604;DHT22;7388;51.078;13.740;2023-12-20T02:05:47;9.90;49.70
14604;DHT22;7388;51.078;13.740;2023-12-20T02:08:13;9.90;49.50
14604;DHT22;7388;51.078;13.740;2023-12-20T02:10:39;9.80;49.70
14604;DHT22;7388;51.078;13.740;2023-12-20T02:13:06;9.80;49.70
14604;DHT22;7388;51.078;13.740;2023-12-20T02:15:32;9.90;50.00
14604;DHT22;7388;51.078;13.740;2023-12-20T02:17:58;9.90;49.40
14604;DHT22;7388;51.078;13.740;2023-12-20T02:20:24;9.80;49.90
14604;DHT22;7388;51.078;13.740;2023-12-20T02:22:50;9.80;49.50
14604;DHT22;7388;51.078;13.740;2023-12-20T02:25:16;9.80;49.60
14604;DHT22;7388;51.078;13.740;2023-12-20T02:27:42;9.90;49.50
14604;DHT22;7388;51.078;13.740;2023-12-20T02:30:08;9.80;49.40
14604;DHT22;7388;51.078;13.740;2023-12-20T02:32:34;9.80;49.40
14604;DHT22;7388;51.078;13.740;2023-12-20T02:35:00;9.80;49.30
14604;DHT22;7388;51.078;13.740;2023-12-20T02:37:26;9.80;49.30
14604;DHT22;7388;51.078;13.740;2023-12-20T02:39:52;9.90;49.40
14604;DHT22;7388;51.078;13.740;2023-12-20T02:42:17;9.90;49.00
14604;DHT22;7388;51.078;13.740;2023-12-20T02:44:43;9.90;49.10
14604;DHT22;7388;51.078;13.740;2023-12-20T02:47:09;9.90;49.00
14604;DHT22;7388;51.078;13.740;2023-12-20T02:49:35;9.90;49.10
14604;DHT22;7388;51.078;13.740;2023-12-20T02:52:01;9.90;50.00
14604;DHT22;7388;51.078;13.740;2023-12-20T02:54:26;10.00;49.10
14604;DHT22;7388;51.078;13.740;2023-12-20T02:56:53;10.10;48.90
14604;DHT22;7388;51.078;13.740;2023-12-20T02:59:18;10.00;48.50
14604;DHT22;7388;51.078;13.740;2023-12-20T03:01:45;10.00;48.80
14604;DHT22;7388;51.078;13.740;2023-12-20T03:04:12;10.10;49.00
14604;DHT22;7388;51.078;13.740;2023-12-20T03:06:38;10.10;48.70
14604;DHT22;7388;51.078;13.740;2023-12-20T03:09:04;10.00;48.50
14604;DHT22;7388;51.078;13.740;2023-12-20T03:11:30;9.80;49.10
14604;DHT22;7388;51.078;13.740;2023-12-20T03:13:56;9.90;49.10
14604;DHT22;7388;51.078;13.740;2023-12-20T03:16:23;9.80;49.20
14604;DHT22;7388;51.078;13.740;2023-12-20T03:18:49;9.90;49.20
14604;DHT22;7388;51.078;13.740;2023-12-20T03:21:15;9.90;49.40
14604;DHT22;7388;51.078;13.740;2023-12-20T03:23:41;9.90;49.30
14604;DHT22;7388;51.078;13.740;2023-12-20T03:26:07;9.80;49.50
14604;DHT22;7388;51.078;13.740;2023-12-20T03:28:33;9.70;49.70
14604;DHT22;7388;51.078;13.740;2023-12-20T03:30:59;9.70;49.80
14604;DHT22;7388;51.078;13.740;2023-12-20T03:33:25;9.80;49.90
14604;DHT22;7388;51.078;13.740;2023-12-20T03:35:51;9.70;50.10
14604;DHT22;7388;51.078;13.740;2023-12-20T03:38:17;9.70;50.30
14604;DHT22;7388;51.078;13.740;2023-12-20T03:40:43;9.60;50.30
14604;DHT22;7388;51.078;13.740;2023-12-20T03:43:09;9.70;50.20
14604;DHT22;7388;51.078;13.740;2023-12-20T03:45:35;9.70;50.40
14604;DHT22;7388;51.078;13.740;2023-12-20T03:48:00;9.60;50.30
14604;DHT22;7388;51.078;13.740;2023-12-20T03:50:26;9.60;50.40
14604;DHT22;7388;51.078;13.740;2023-12-20T03:52:52;9.60;50.60
14604;DHT22;7388;51.078;13.740;2023-12-20T03:55:18;9.60;50.40
14604;DHT22;7388;51.078;13.740;2023-12-20T03:57:44;9.70;50.20
14604;DHT22;7388;51.078;13.740;2023-12-20T04:00:11;9.80;49.80
14604;DHT22;7388;51.078;13.740;2023-12-20T04:02:41;9.80;49.90
14604;DHT22;7388;51.078;13.740;2023-12-20T04:05:07;9.90;49.80
14604;DHT22;7388;51.078;13.740;2023-12-20T04:07:33;9.90;49.90
14604;DHT22;7388;51.078;13.740;2023-12-20T04:10:00;10.00;49.70
14604;DHT22;7388;51.078;13.740;2023-12-20T04:12:28;10.00;49.40
14604;DHT22;7388;51.078;13.740;2023-12-20T04:14:54;10.10;49.50
14604;DHT22;7388;51.078;13.740;2023-12-20T04:17:20;10.10;49.40
14604;DHT22;7388;51.078;13.740;2023-12-20T04:19:46;10.10;49.10
14604;DHT22;7388;51.078;13.740;2023-12-20T04:22:11;10.10;49.20
14604;DHT22;7388;51.078;13.740;2023-12-20T04:24:37;10.10;49.30
14604;DHT22;7388;51.078;13.740;2023-12-20T04:27:03;10.20;49.20
14604;DHT22;7388;51.078;13.740;2023-12-20T04:29:29;10.10;49.30
14604;DHT22;7388;51.078;13.740;2023-12-20T04:31:55;10.10;49.40
14604;DHT22;7388;51.078;13.740;2023-12-20T04:34:22;10.10;49.60
14604;DHT22;7388;51.078;13.740;2023-12-20T04:36:48;10.00;49.80
14604;DHT22;7388;51.078;13.740;2023-12-20T04:39:14;10.10;49.70
14604;DHT22;7388;51.078;13.740;2023-12-20T04:41:40;10.10;49.80
14604;DHT22;7388;51.078;13.740;2023-12-20T04:44:06;10.10;49.60
14604;DHT22;7388;51.078;13.740;2023-12-20T04:46:32;10.20;49.40
14604;DHT22;7388;51.078;13.740;2023-12-20T04:48:58;10.20;49.50
14604;DHT22;7388;51.078;13.740;2023-12-20T04:51:24;10.10;49.60
14604;DHT22;7388;51.078;13.740;2023-12-20T04:53:50;10.10;49.70
14604;DHT22;7388;51.078;13.740;2023-12-20T04:56:16;10.10;49.60
14604;DHT22;7388;51.078;13.740;2023-12-20T04:58:42;10.10;49.70
14604;DHT22;7388;51.078;13.740;2023-12-20T05:01:09;10.10;49.60
14604;DHT22;7388;51.078;13.740;2023-12-20T05:03:35;10.20;49.50
14604;DHT22;7388;51.078;13.740;2023-12-20T05:06:01;10.20;49.50
14604;DHT22;7388;51.078;13.740;2023-12-20T05:08:27;10.30;49.50
14604;DHT22;7388;51.078;13.740;2023-12-20T05:10:54;10.30;49.50
14604;DHT22;7388;51.078;13.740;2023-12-20T05:13:20;10.30;49.50
14604;DHT22;7388;51.078;13.740;2023-12-20T05:15:46;10.30;49.40
14604;DHT22;7388;51.078;13.740;2023-12-20T05:18:12;10.40;50.00
14604;DHT22;7388;51.078;13.740;2023-12-20T05:20:39;10.40;49.20
14604;DHT22;7388;51.078;13.740;2023-12-20T05:23:05;10.50;49.10
14604;DHT22;7388;51.078;13.740;2023-12-20T05:25:31;10.50;49.10
14604;DHT22;7388;51.078;13.740;2023-12-20T05:27:57;10.50;48.90
14604;DHT22;7388;51.078;13.740;2023-12-20T05:30:23;10.50;48.90
14604;DHT22;7388;51.078;13.740;2023-12-20T05:32:49;10.50;49.00
14604;DHT22;7388;51.078;13.740;2023-12-20T05:35:15;10.50;49.20
14604;DHT22;7388;51.078;13.740;2023-12-20T05:37:41;10.50;49.10
14604;DHT22;7388;51.078;13.740;2023-12-20T05:40:08;10.50;49.30
14604;DHT22;7388;51.078;13.740;2023-12-20T05:42:36;10.50;49.10
14604;DHT22;7388;51.078;13.740;2023-12-20T05:45:03;10.40;49.30
14604;DHT22;7388;51.078;13.740;2023-12-20T05:47:29;10.40;49.40
14604;DHT22;7388;51.078;13.740;2023-12-20T05:49:55;10.30;49.70
14604;DHT22;7388;51.078;13.740;2023-12-20T05:52:21;10.20;50.00
14604;DHT22;7388;51.078;13.740;2023-12-20T05:54:47;10.20;50.10
14604;DHT22;7388;51.078;13.740;2023-12-20T05:57:13;10.20;50.00
14604;DHT22;7388;51.078;13.740;2023-12-20T05:59:39;10.20;50.20
14604;DHT22;7388;51.078;13.740;2023-12-20T06:02:05;10.20;50.00
14604;DHT22;7388;51.078;13.740;2023-12-20T06:04:32;10.30;50.00
14604;DHT22;7388;51.078;13.740;2023-12-20T06:06:58;10.30;50.00
14604;DHT22;7388;51.078;13.740;2023-12-20T06:09:26;10.30;50.00
14604;DHT22;7388;51.078;13.740;2023-12-20T06:11:52;10.30;49.90
14604;DHT22;7388;51.078;13.740;2023-12-20T06:14:19;10.40;49.80
14604;DHT22;7388;51.078;13.740;2023-12-20T06:16:45;10.40;50.00
14604;DHT22;7388;51.078;13.740;2023-12-20T06:19:11;10.40;50.00
14604;DHT22;7388;51.078;13.740;2023-12-20T06:21:37;10.40;49.90
14604;DHT22;7388;51.078;13.740;2023-12-20T06:24:03;10.40;50.00
14604;DHT22;7388;51.078;13.740;2023-12-20T06:26:29;10.30;50.10
14604;DHT22;7388;51.078;13.740;2023-12-20T06:28:55;10.40;50.00
14604;DHT22;7388;51.078;13.740;2023-12-20T06:31:21;10.40;49.80
14604;DHT22;7388;51.078;13.740;2023-12-20T06:33:47;10.50;49.90
14604;DHT22;7388;51.078;13.740;2023-12-20T06:36:15;10.50;49.70
14604;DHT22;7388;51.078;13.740;2023-12-20T06:38:41;10.50;49.70
14604;DHT22;7388;51.078;13.740;2023-12-20T06:41:07;10.50;49.80
14604;DHT22;7388;51.078;13.740;2023-12-20T06:43:33;10.50;50.00
14604;DHT22;7388;51.078;13.740;2023-12-20T06:46:02;10.40;50.00
14604;DHT22;7388;51.078;13.740;2023-12-20T06:48:28;10.30;50.30
14604;DHT22;7388;51.078;13.740;2023-12-20T06:50:54;10.30;51.00
14604;DHT22;7388;51.078;13.740;2023-12-20T06:53:20;10.20;51.30
14604;DHT22;7388;51.078;13.740;2023-12-20T06:55:46;10.20;51.30
14604;DHT22;7388;51.078;13.740;2023-12-20T06:58:11;10.20;51.10
14604;DHT22;7388;51.078;13.740;2023-12-20T07:00:37;10.20;51.20
14604;DHT22;7388;51.078;13.740;2023-12-20T07:03:03;10.30;50.90
14604;DHT22;7388;51.078;13.740;2023-12-20T07:05:29;10.30;51.00
14604;DHT22;7388;51.078;13.740;2023-12-20T07:07:55;10.30;50.80
14604;DHT22;7388;51.078;13.740;2023-12-20T07:10:21;10.40;50.70
14604;DHT22;7388;51.078;13.740;2023-12-20T07:12:47;10.40;50.50
14604;DHT22;7388;51.078;13.740;2023-12-20T07:15:14;10.40;50.40
14604;DHT22;7388;51.078;13.740;2023-12-20T07:17:40;10.50;50.40
14604;DHT22;7388;51.078;13.740;2023-12-20T07:20:06;10.50;50.30
14604;DHT22;7388;51.078;13.740;2023-12-20T07:22:35;10.50;50.20
14604;DHT22;7388;51.078;13.740;2023-12-20T07:25:01;10.50;50.10
14604;DHT22;7388;51.078;13.740;2023-12-20T07:27:27;10.50;50.20
14604;DHT22;7388;51.078;13.740;2023-12-20T07:29:53;10.50;50.10
14604;DHT22;7388;51.078;13.740;2023-12-20T07:32:19;10.50;50.10
14604;DHT22;7388;51.078;13.740;2023-12-20T07:34:45;10.50;50.10
14604;DHT22;7388;51.078;13.740;2023-12-20T07:37:11;10.50;50.00
14604;DHT22;7388;51.078;13.740;2023-12-20T07:39:40;10.50;50.00
14604;DHT22;7388;51.078;13.740;2023-12-20T07:42:07;10.40;50.20
14604;DHT22;7388;51.078;13.740;2023-12-20T07:44:33;10.40;50.20
14604;DHT22;7388;51.078;13.740;2023-12-20T07:47:01;10.40;50.40
14604;DHT22;7388;51.078;13.740;2023-12-20T07:49:27;10.20;50.70
14604;DHT22;7388;51.078;13.740;2023-12-20T07:51:53;10.10;50.90
14604;DHT22;7388;51.078;13.740;2023-12-20T07:54:19;10.20;50.80
14604;DHT22;7388;51.078;13.740;2023-12-20T07:56:46;10.20;50.40
14604;DHT22;7388;51.078;13.740;2023-12-20T07:59:12;10.10;50.20
14604;DHT22;7388;51.078;13.740;2023-12-20T08:01:38;10.10;50.40
14604;DHT22;7388;51.078;13.740;2023-12-20T08:04:04;10.10;50.20
14604;DHT22;7388;51.078;13.740;2023-12-20T08:06:30;10.00;50.10
14604;DHT22;7388;51.078;13.740;2023-12-20T08:08:56;9.90;50.40
14604;DHT22;7388;51.078;13.740;2023-12-20T08:11:22;9.90;50.40
14604;DHT22;7388;51.078;13.740;2023-12-20T08:13:48;9.90;50.40
14604;DHT22;7388;51.078;13.740;2023-12-20T08:16:14;9.80;50.60
14604;DHT22;7388;51.078;13.740;2023-12-20T08:18:43;10.00;50.60
14604;DHT22;7388;51.078;13.740;2023-12-20T08:21:09;10.00;50.40
14604;DHT22;7388;51.078;13.740;2023-12-20T08:23:35;10.20;50.10
14604;DHT22;7388;51.078;13.740;2023-12-20T08:26:07;10.30;49.50
14604;DHT22;7388;51.078;13.740;2023-12-20T08:28:34;10.20;49.80
14604;DHT22;7388;51.078;13.740;2023-12-20T08:31:00;10.40;49.80
14604;DHT22;7388;51.078;13.740;2023-12-20T08:33:26;10.40;49.20
14604;DHT22;7388;51.078;13.740;2023-12-20T08:35:52;10.40;49.20
14604;DHT22;7388;51.078;13.740;2023-12-20T08:38:18;10.50;48.50
14604;DHT22;7388;51.078;13.740;2023-12-20T08:40:44;10.60;49.20
14604;DHT22;7388;51.078;13.740;2023-12-20T08:43:10;10.70;48.80
14604;DHT22;7388;51.078;13.740;2023-12-20T08:45:37;10.90;49.00
14604;DHT22;7388;51.078;13.740;2023-12-20T08:48:04;11.20;48.40
14604;DHT22;7388;51.078;13.740;2023-12-20T08:50:31;11.30;46.70
14604;DHT22;7388;51.078;13.740;2023-12-20T08:52:57;11.50;47.70
14604;DHT22;7388;51.078;13.740;2023-12-20T08:55:23;11.80;46.80
14604;DHT22;7388;51.078;13.740;2023-12-20T08:57:49;12.00;44.40
14604;DHT22;7388;51.078;13.740;2023-12-20T09:00:16;11.90;43.70
14604;DHT22;7388;51.078;13.740;2023-12-20T09:02:42;11.70;43.60
14604;DHT22;7388;51.078;13.740;2023-12-20T09:05:08;11.60;43.40
14604;DHT22;7388;51.078;13.740;2023-12-20T09:07:34;11.40;43.10
14604;DHT22;7388;51.078;13.740;2023-12-20T09:10:00;11.30;43.90
14604;DHT22;7388;51.078;13.740;2023-12-20T09:12:26;11.20;43.80
14604;DHT22;7388;51.078;13.740;2023-12-20T09:14:53;11.20;43.80
14604;DHT22;7388;51.078;13.740;2023-12-20T09:17:19;11.20;42.80
14604;DHT22;7388;51.078;13.740;2023-12-20T09:19:46;11.30;43.30
14604;DHT22;7388;51.078;13.740;2023-12-20T09:22:12;11.50;42.40
14604;DHT22;7388;51.078;13.740;2023-12-20T09:24:38;11.80;43.40
14604;DHT22;7388;51.078;13.740;2023-12-20T09:27:05;12.10;43.00
14604;DHT22;7388;51.078;13.740;2023-12-20T09:29:31;12.30;39.80
14604;DHT22;7388;51.078;13.740;2023-12-20T09:31:57;12.40;40.20
14604;DHT22;7388;51.078;13.740;2023-12-20T09:34:23;12.50;39.30
14604;DHT22;7388;51.078;13.740;2023-12-20T09:36:49;12.30;39.40
14604;DHT22;7388;51.078;13.740;2023-12-20T09:39:19;12.20;40.00
14604;DHT22;7388;51.078;13.740;2023-12-20T09:41:56;12.10;40.80
14604;DHT22;7388;51.078;13.740;2023-12-20T09:44:24;12.00;40.30
14604;DHT22;7388;51.078;13.740;2023-12-20T09:46:51;12.40;40.40
14604;DHT22;7388;51.078;13.740;2023-12-20T09:49:19;12.50;40.30
14604;DHT22;7388;51.078;13.740;2023-12-20T09:51:46;12.70;40.30
14604;DHT22;7388;51.078;13.740;2023-12-20T09:54:17;12.80;39.20
14604;DHT22;7388;51.078;13.740;2023-12-20T09:56:43;12.80;39.50
14604;DHT22;7388;51.078;13.740;2023-12-20T09:59:09;12.80;39.10
14604;DHT22;7388;51.078;13.740;2023-12-20T10:01:36;12.80;39.70
14604;DHT22;7388;51.078;13.740;2023-12-20T10:04:08;13.10;37.90
14604;DHT22;7388;51.078;13.740;2023-12-20T10:06:36;13.10;37.20
14604;DHT22;7388;51.078;13.740;2023-12-20T10:09:02;12.60;37.90
14604;DHT22;7388;51.078;13.740;2023-12-20T10:11:29;12.20;38.90
14604;DHT22;7388;51.078;13.740;2023-12-20T10:14:02;12.30;39.20
14604;DHT22;7388;51.078;13.740;2023-12-20T10:16:28;12.70;38.40
14604;DHT22;7388;51.078;13.740;2023-12-20T10:18:55;12.60;38.10
14604;DHT22;7388;51.078;13.740;2023-12-20T10:21:22;12.80;38.50
14604;DHT22;7388;51.078;13.740;2023-12-20T10:23:49;13.30;37.70
14604;DHT22;7388;51.078;13.740;2023-12-20T10:26:24;14.00;36.50
14604;DHT22;7388;51.078;13.740;2023-12-20T10:28:55;14.30;35.40
14604;DHT22;7388;51.078;13.740;2023-12-20T10:31:31;14.00;35.00
14604;DHT22;7388;51.078;13.740;2023-12-20T10:33:58;13.80;34.80
14604;DHT22;7388;51.078;13.740;2023-12-20T10:36:29;13.20;36.70
14604;DHT22;7388;51.078;13.740;2023-12-20T10:38:56;13.40;37.50
14604;DHT22;7388;51.078;13.740;2023-12-20T10:41:30;13.70;35.40
14604;DHT22;7388;51.078;13.740;2023-12-20T10:44:03;13.70;35.40
14604;DHT22;7388;51.078;13.740;2023-12-20T10:46:31;13.60;35.10
14604;DHT22;7388;51.078;13.740;2023-12-20T10:49:02;13.10;35.60
14604;DHT22;7388;51.078;13.740;2023-12-20T10:51:28;13.20;37.10
14604;DHT22;7388;51.078;13.740;2023-12-20T10:53:56;13.60;36.70
14604;DHT22;7388;51.078;13.740;2023-12-20T10:56:22;13.90;35.00
14604;DHT22;7388;51.078;13.740;2023-12-20T10:58:51;13.60;35.60
14604;DHT22;7388;51.078;13.740;2023-12-20T11:01:18;13.70;34.20
14604;DHT22;7388;51.078;13.740;2023-12-20T11:03:52;13.50;34.30
14604;DHT22;7388;51.078;13.740;2023-12-20T11:06:38;13.40;35.20
14604;DHT22;7388;51.078;13.740;2023-12-20T11:09:35;13.80;34.90
14604;DHT22;7388;51.078;13.740;2023-12-20T11:12:37;14.00;34.40
14604;DHT22;7388;51.078;13.740;2023-12-20T11:15:07;14.00;34.30
14604;DHT22;7388;51.078;13.740;2023-12-20T11:17:33;13.80;33.50
14604;DHT22;7388;51.078;13.740;2023-12-20T11:22:30;13.10;35.60
14604;DHT22;7388;51.078;13.740;2023-12-20T11:25:07;12.80;35.80
14604;DHT22;7388;51.078;13.740;2023-12-20T11:27:40;12.50;36.30
14604;DHT22;7388;51.078;13.740;2023-12-20T11:30:06;12.20;36.20
14604;DHT22;7388;51.078;13.740;2023-12-20T11:32:37;12.20;36.80
14604;DHT22;7388;51.078;13.740;2023-12-20T11:37:37;12.10;36.80
14604;DHT22;7388;51.078;13.740;2023-12-20T11:40:07;11.90;37.00
14604;DHT22;7388;51.078;13.740;2023-12-20T11:42:42;11.50;37.40
14604;DHT22;7388;51.078;13.740;2023-12-20T11:45:19;11.30;38.30
14604;DHT22;7388;51.078;13.740;2023-12-20T11:47:48;11.30;38.70
14604;DHT22;7388;51.078;13.740;2023-12-20T11:50:17;11.10;39.00
14604;DHT22;7388;51.078;13.740;2023-12-20T11:52:43;11.20;38.30
14604;DHT22;7388;51.078;13.740;2023-12-20T11:55:09;11.40;37.80
14604;DHT22;7388;51.078;13.740;2023-12-20T11:57:36;11.70;38.10
14604;DHT22;7388;51.078;13.740;2023-12-20T12:00:05;11.90;37.30
14604;DHT22;7388;51.078;13.740;2023-12-20T12:02:32;12.20;37.20
14604;DHT22;7388;51.078;13.740;2023-12-20T12:04:59;12.30;36.20
14604;DHT22;7388;51.078;13.740;2023-12-20T12:07:25;12.60;36.90
14604;DHT22;7388;51.078;13.740;2023-12-20T12:09:51;12.90;35.80
14604;DHT22;7388;51.078;13.740;2023-12-20T12:12:17;13.30;35.60
14604;DHT22;7388;51.078;13.740;2023-12-20T12:14:45;13.60;34.10
14604;DHT22;7388;51.078;13.740;2023-12-20T12:17:12;13.90;33.50
14604;DHT22;7388;51.078;13.740;2023-12-20T12:19:42;14.10;32.30
14604;DHT22;7388;51.078;13.740;2023-12-20T12:22:13;14.30;31.60
14604;DHT22;7388;51.078;13.740;2023-12-20T12:24:43;14.30;32.40
14604;DHT22;7388;51.078;13.740;2023-12-20T12:27:09;14.70;31.30
14604;DHT22;7388;51.078;13.740;2023-12-20T12:29:36;15.10;30.80
14604;DHT22;7388;51.078;13.740;2023-12-20T12:32:09;15.20;30.30
14604;DHT22;7388;51.078;13.740;2023-12-20T12:34:35;15.70;29.50
14604;DHT22;7388;51.078;13.740;2023-12-20T12:37:03;16.60;28.20
14604;DHT22;7388;51.078;13.740;2023-12-20T12:39:29;17.20;27.70
14604;DHT22;7388;51.078;13.740;2023-12-20T12:41:56;17.90;26.00
14604;DHT22;7388;51.078;13.740;2023-12-20T12:44:22;18.10;26.90
14604;DHT22;7388;51.078;13.740;2023-12-20T12:46:52;17.70;25.50
14604;DHT22;7388;51.078;13.740;2023-12-20T12:49:19;16.90;26.70
14604;DHT22;7388;51.078;13.740;2023-12-20T12:51:47;16.50;28.20
14604;DHT22;7388;51.078;13.740;2023-12-20T12:54:12;16.70;27.10
14604;DHT22;7388;51.078;13.740;2023-12-20T12:56:39;17.10;26.70
14604;DHT22;7388;51.078;13.740;2023-12-20T12:59:05;17.20;27.10
14604;DHT22;7388;51.078;13.740;2023-12-20T13:01:32;17.80;26.30
14604;DHT22;7388;51.078;13.740;2023-12-20T13:03:57;18.10;26.00
14604;DHT22;7388;51.078;13.740;2023-12-20T13:06:23;18.00;25.80
14604;DHT22;7388;51.078;13.740;2023-12-20T13:08:49;17.60;25.70
14604;DHT22;7388;51.078;13.740;2023-12-20T13:11:15;17.10;26.50
14604;DHT22;7388;51.078;13.740;2023-12-20T13:13:41;16.50;27.20
14604;DHT22;7388;51.078;13.740;2023-12-20T13:16:07;16.00;28.00
14604;DHT22;7388;51.078;13.740;2023-12-20T13:18:33;15.60;29.20
14604;DHT22;7388;51.078;13.740;2023-12-20T13:20:59;15.30;29.50
14604;DHT22;7388;51.078;13.740;2023-12-20T13:23:25;15.30;29.90
14604;DHT22;7388;51.078;13.740;2023-12-20T13:25:51;15.20;29.20
14604;DHT22;7388;51.078;13.740;2023-12-20T13:28:17;15.00;30.10
14604;DHT22;7388;51.078;13.740;2023-12-20T13:30:43;14.90;30.10
14604;DHT22;7388;51.078;13.740;2023-12-20T13:33:09;15.00;30.10
14604;DHT22;7388;51.078;13.740;2023-12-20T13:35:35;15.00;30.00
14604;DHT22;7388;51.078;13.740;2023-12-20T13:38:01;14.90;29.80
14604;DHT22;7388;51.078;13.740;2023-12-20T13:40:27;14.60;29.80
14604;DHT22;7388;51.078;13.740;2023-12-20T13:42:54;14.00;30.70
14604;DHT22;7388;51.078;13.740;2023-12-20T13:45:20;13.80;31.00
14604;DHT22;7388;51.078;13.740;2023-12-20T13:47:46;13.30;32.90
14604;DHT22;7388;51.078;13.740;2023-12-20T13:50:12;13.00;32.80
14604;DHT22;7388;51.078;13.740;2023-12-20T13:52:38;12.80;33.50
14604;DHT22;7388;51.078;13.740;2023-12-20T13:55:04;12.70;33.80
14604;DHT22;7388;51.078;13.740;2023-12-20T13:57:33;12.60;33.90
14604;DHT22;7388;51.078;13.740;2023-12-20T13:59:59;12.40;34.20
14604;DHT22;7388;51.078;13.740;2023-12-20T14:02:25;12.20;34.80
14604;DHT22;7388;51.078;13.740;2023-12-20T14:04:52;12.10;34.80
14604;DHT22;7388;51.078;13.740;2023-12-20T14:07:18;12.70;35.60
14604;DHT22;7388;51.078;13.740;2023-12-20T14:09:44;11.90;35.40
14604;DHT22;7388;51.078;13.740;2023-12-20T14:12:14;11.80;35.50
14604;DHT22;7388;51.078;13.740;2023-12-20T14:14:40;11.80;35.70
14604;DHT22;7388;51.078;13.740;2023-12-20T14:17:06;11.80;35.80
14604;DHT22;7388;51.078;13.740;2023-12-20T14:19:33;11.70;35.20
14604;DHT22;7388;51.078;13.740;2023-12-20T14:21:59;11.60;35.80
14604;DHT22;7388;51.078;13.740;2023-12-20T14:24:28;11.30;36.40
14604;DHT22;7388;51.078;13.740;2023-12-20T14:26:54;11.10;36.70
14604;DHT22;7388;51.078;13.740;2023-12-20T14:29:20;11.10;36.30
14604;DHT22;7388;51.078;13.740;2023-12-20T14:31:46;11.10;37.00
14604;DHT22;7388;51.078;13.740;2023-12-20T14:34:12;11.20;36.40
14604;DHT22;7388;51.078;13.740;2023-12-20T14:36:38;11.10;36.90
14604;DHT22;7388;51.078;13.740;2023-12-20T14:39:04;11.20;36.80
14604;DHT22;7388;51.078;13.740;2023-12-20T14:41:31;11.20;36.80
14604;DHT22;7388;51.078;13.740;2023-12-20T14:43:57;11.00;37.10
14604;DHT22;7388;51.078;13.740;2023-12-20T14:46:22;11.10;37.30
14604;DHT22;7388;51.078;13.740;2023-12-20T14:48:48;11.10;37.10
14604;DHT22;7388;51.078;13.740;2023-12-20T14:51:15;11.00;37.50
14604;DHT22;7388;51.078;13.740;2023-12-20T14:53:41;11.00;37.50
14604;DHT22;7388;51.078;13.740;2023-12-20T14:56:08;10.90;37.50
14604;DHT22;7388;51.078;13.740;2023-12-20T14:58:34;11.00;37.40
14604;DHT22;7388;51.078;13.740;2023-12-20T15:01:00;11.00;37.60
14604;DHT22;7388;51.078;13.740;2023-12-20T15:03:26;11.10;37.30
14604;DHT22;7388;51.078;13.740;2023-12-20T15:05:52;11.00;37.40
14604;DHT22;7388;51.078;13.740;2023-12-20T15:08:18;11.00;37.80
14604;DHT22;7388;51.078;13.740;2023-12-20T15:10:44;11.00;37.80
14604;DHT22;7388;51.078;13.740;2023-12-20T15:13:10;11.10;37.70
14604;DHT22;7388;51.078;13.740;2023-12-20T15:15:37;11.20;37.40
14604;DHT22;7388;51.078;13.740;2023-12-20T15:18:03;11.20;37.30
14604;DHT22;7388;51.078;13.740;2023-12-20T15:20:29;11.10;37.50
14604;DHT22;7388;51.078;13.740;2023-12-20T15:22:55;11.10;37.60
14604;DHT22;7388;51.078;13.740;2023-12-20T15:25:24;11.00;37.90
14604;DHT22;7388;51.078;13.740;2023-12-20T15:27:50;10.90;37.90
14604;DHT22;7388;51.078;13.740;2023-12-20T15:30:21;10.90;38.10
14604;DHT22;7388;51.078;13.740;2023-12-20T15:32:47;10.90;38.30
14604;DHT22;7388;51.078;13.740;2023-12-20T15:35:13;10.90;38.20